createdAt,value
2023-10-20T00:00:26.231Z,26.27
2023-10-20T00:02:54.303Z,28.40
2023-10-20T00:05:22.323Z,25.48
2023-10-20T00:07:52.090Z,24.50
2023-10-20T00:10:20.126Z,25.17
2023-10-20T00:12:48.026Z,25.63
2023-10-20T00:15:17.120Z,25.27
2023-10-20T00:17:46.284Z,26.85
2023-10-20T00:20:14.694Z,27.27
2023-10-20T00:22:43.698Z,27.65
2023-10-20T00:25:13.451Z,25.90
2023-10-20T00:27:42.449Z,29.33
2023-10-20T00:30:12.798Z,27.67
2023-10-20T00:32:42.120Z,25.38
2023-10-20T00:35:14.743Z,29.70
2023-10-20T00:37:43.408Z,29.77
2023-10-20T00:40:14.461Z,29.15
2023-10-20T00:42:42.691Z,27.63
2023-10-20T00:45:12.144Z,27.52
2023-10-20T00:47:41.731Z,26.77
2023-10-20T00:50:13.274Z,29.17
2023-10-20T00:52:43.974Z,27.85
2023-10-20T00:55:14.925Z,31.63
2023-10-20T00:57:45.175Z,30.48
2023-10-20T01:00:15.121Z,28.95
2023-10-20T01:02:43.808Z,27.33
2023-10-20T01:05:15.983Z,30.90
2023-10-20T01:07:44.917Z,28.05
2023-10-20T01:10:14.893Z,27.05
2023-10-20T01:12:43.348Z,29.42
2023-10-20T01:15:12.438Z,26.87
2023-10-20T01:17:41.088Z,28.83
2023-10-20T01:20:10.018Z,29.23
2023-10-20T01:22:38.115Z,30.45
2023-10-20T01:25:08.420Z,31.08
2023-10-20T01:27:37.306Z,29.87
2023-10-20T01:30:06.353Z,28.02
2023-10-20T01:32:34.426Z,29.05
2023-10-20T01:35:02.512Z,29.75
2023-10-20T01:37:30.504Z,31.70
2023-10-20T01:39:58.464Z,29.30
2023-10-20T01:42:28.867Z,32.30
2023-10-20T01:44:56.824Z,30.52
2023-10-20T01:47:25.630Z,30.08
2023-10-20T01:49:54.606Z,31.95
2023-10-20T01:52:23.039Z,31.40
2023-10-20T01:54:51.559Z,35.72
2023-10-20T01:57:19.724Z,29.98
2023-10-20T01:59:49.731Z,29.67
2023-10-20T02:02:17.869Z,27.95
2023-10-20T02:04:45.965Z,35.33
2023-10-20T02:07:14.320Z,32.28
2023-10-20T02:09:42.472Z,33.20
2023-10-20T02:12:11.745Z,31.92
2023-10-20T02:14:39.708Z,33.35
2023-10-20T02:17:09.726Z,33.23
2023-10-20T02:19:37.884Z,34.17
2023-10-20T02:22:05.911Z,32.38
2023-10-20T02:24:34.112Z,32.90
2023-10-20T02:27:02.539Z,33.85
2023-10-20T02:29:31.119Z,33.83
2023-10-20T02:31:59.131Z,36.80
2023-10-20T02:34:28.692Z,36.90
2023-10-20T02:36:56.726Z,35.78
2023-10-20T02:39:24.672Z,34.90
2023-10-20T02:41:55.356Z,33.93
2023-10-20T02:44:24.086Z,34.50
2023-10-20T02:46:52.513Z,36.17
2023-10-20T02:49:21.194Z,34.60
2023-10-20T02:51:50.660Z,36.45
2023-10-20T02:54:18.666Z,36.00
2023-10-20T02:56:46.645Z,38.38
2023-10-20T02:59:14.780Z,35.75
2023-10-20T03:01:42.752Z,36.70
2023-10-20T03:04:10.897Z,34.22
2023-10-20T03:06:38.964Z,37.37
2023-10-20T03:09:08.357Z,38.95
2023-10-20T03:11:36.645Z,36.63
2023-10-20T03:14:04.695Z,37.42
2023-10-20T03:16:32.723Z,31.92
2023-10-20T03:19:02.410Z,35.93
2023-10-20T03:21:31.615Z,34.58
2023-10-20T03:23:59.985Z,36.75
2023-10-20T03:26:29.481Z,35.47
2023-10-20T03:28:57.806Z,34.70
2023-10-20T03:31:26.098Z,34.70
2023-10-20T03:33:54.222Z,37.97
2023-10-20T03:36:23.154Z,33.55
2023-10-20T03:38:52.132Z,36.17
2023-10-20T03:41:20.542Z,35.97
2023-10-20T03:43:51.893Z,34.53
2023-10-20T03:46:19.986Z,37.05
2023-10-20T03:48:48.145Z,35.17
2023-10-20T03:51:18.436Z,34.55
2023-10-20T03:53:51.868Z,34.35
2023-10-20T03:56:23.357Z,34.60
2023-10-20T03:58:53.006Z,39.65
2023-10-20T04:01:22.488Z,31.73
2023-10-20T04:03:52.843Z,34.42
2023-10-20T04:06:21.763Z,32.80
2023-10-20T04:08:50.066Z,27.47
2023-10-20T04:11:18.404Z,33.72
2023-10-20T04:13:46.395Z,39.25
2023-10-20T04:16:18.560Z,30.20
2023-10-20T04:18:48.232Z,30.23
2023-10-20T04:21:16.182Z,36.37
2023-10-20T04:23:45.117Z,38.00
2023-10-20T04:26:20.557Z,34.40
2023-10-20T04:28:49.396Z,38.50
2023-10-20T04:31:38.855Z,34.03
2023-10-20T04:34:24.481Z,32.07
2023-10-20T04:37:10.056Z,32.47
2023-10-20T04:39:55.562Z,32.03
2023-10-20T04:42:40.338Z,32.40
2023-10-20T04:45:26.264Z,32.90
2023-10-20T04:48:16.368Z,34.87
2023-10-20T04:51:09.905Z,33.80
2023-10-20T04:53:54.813Z,31.80
2023-10-20T04:56:37.344Z,35.67
2023-10-20T04:59:11.243Z,36.97
2023-10-20T05:01:48.736Z,30.50
2023-10-20T05:04:22.492Z,32.53
2023-10-20T05:06:59.597Z,31.58
2023-10-20T05:09:28.112Z,31.45
2023-10-20T05:11:57.010Z,36.10
2023-10-20T05:14:25.179Z,33.40
2023-10-20T05:16:53.532Z,35.00
2023-10-20T05:19:23.116Z,27.60
2023-10-20T05:21:51.964Z,31.40
2023-10-20T05:24:20.057Z,27.85
2023-10-20T05:26:48.392Z,31.60
2023-10-20T05:29:16.704Z,30.88
2023-10-20T05:31:45.108Z,29.15
2023-10-20T05:34:14.643Z,31.50
2023-10-20T05:36:45.617Z,28.67
2023-10-20T05:39:15.329Z,29.30
2023-10-20T05:41:45.045Z,27.77
2023-10-20T05:44:15.735Z,27.30
2023-10-20T05:46:44.161Z,26.85
2023-10-20T05:49:12.330Z,28.92
2023-10-20T05:51:40.472Z,25.67
2023-10-20T05:54:10.146Z,30.00
2023-10-20T05:56:38.334Z,30.95
2023-10-20T05:59:06.395Z,29.50
2023-10-20T06:01:34.726Z,26.83
2023-10-20T06:04:03.032Z,26.17
2023-10-20T06:06:32.244Z,25.55
2023-10-20T06:09:00.399Z,27.17
2023-10-20T06:11:29.845Z,24.80
2023-10-20T06:13:57.863Z,27.98
2023-10-20T06:16:26.451Z,25.63
2023-10-20T06:18:54.713Z,23.50
2023-10-20T06:21:24.215Z,25.63
2023-10-20T06:23:52.675Z,25.15
2023-10-20T06:26:20.713Z,26.70
2023-10-20T06:28:50.247Z,24.53
2023-10-20T06:31:42.563Z,24.48
2023-10-20T06:34:24.911Z,27.58
2023-10-20T06:37:02.106Z,27.73
2023-10-20T06:39:31.904Z,28.55
2023-10-20T06:42:00.361Z,26.07
2023-10-20T06:44:30.234Z,25.02
2023-10-20T06:46:58.770Z,24.42
2023-10-20T06:49:26.842Z,27.83
2023-10-20T06:51:54.824Z,27.33
2023-10-20T06:54:22.857Z,27.87
2023-10-20T06:56:50.893Z,27.42
2023-10-20T06:59:19.151Z,24.40
2023-10-20T07:01:48.852Z,27.77
2023-10-20T07:04:18.091Z,25.77
2023-10-20T07:06:50.196Z,27.60
2023-10-20T07:09:20.039Z,24.92
2023-10-20T07:11:49.776Z,26.85
2023-10-20T07:14:18.580Z,23.90
2023-10-20T07:16:50.464Z,26.40
2023-10-20T07:19:25.006Z,23.27
2023-10-20T07:22:00.617Z,23.05
2023-10-20T07:24:40.901Z,18.30
2023-10-20T07:27:09.149Z,20.70
2023-10-20T07:29:42.828Z,18.00
2023-10-20T07:32:14.825Z,18.23
2023-10-20T07:34:43.148Z,17.40
2023-10-20T07:37:12.012Z,18.73
2023-10-20T07:39:40.016Z,19.38
2023-10-20T07:42:08.075Z,17.40
2023-10-20T07:44:36.594Z,17.67
2023-10-20T07:47:04.962Z,19.95
2023-10-20T07:49:34.261Z,17.67
2023-10-20T07:52:05.687Z,19.60
2023-10-20T07:54:34.600Z,17.67
2023-10-20T07:57:04.378Z,14.63
2023-10-20T07:59:32.942Z,16.42
2023-10-20T08:02:01.045Z,18.05
2023-10-20T08:04:29.278Z,18.73
2023-10-20T08:07:00.824Z,19.90
2023-10-20T08:09:32.648Z,18.30
2023-10-20T08:12:02.466Z,17.05
2023-10-20T08:14:31.579Z,12.75
2023-10-20T08:17:04.455Z,15.98
2023-10-20T08:19:32.741Z,15.57
2023-10-20T08:22:02.757Z,15.87
2023-10-20T08:24:31.231Z,12.35
2023-10-20T08:26:59.365Z,11.88
2023-10-20T08:29:28.455Z,13.95
2023-10-20T08:31:56.521Z,12.30
2023-10-20T08:34:24.698Z,14.13
2023-10-20T08:36:52.890Z,11.45
2023-10-20T08:39:26.645Z,13.23
2023-10-20T08:41:54.798Z,8.18
2023-10-20T08:44:23.503Z,11.50
2023-10-20T08:46:56.169Z,9.27
2023-10-20T08:49:24.491Z,9.00
2023-10-20T08:51:55.238Z,9.27
2023-10-20T08:54:25.423Z,8.40
2023-10-20T08:56:54.621Z,8.43
2023-10-20T08:59:22.714Z,7.17
2023-10-20T09:01:53.342Z,6.32
2023-10-20T09:04:25.154Z,7.85
2023-10-20T09:06:53.865Z,6.95
2023-10-20T09:09:22.502Z,4.88
2023-10-20T09:11:52.172Z,6.33
2023-10-20T09:14:20.421Z,6.32
2023-10-20T09:16:48.430Z,6.28
2023-10-20T09:19:16.724Z,5.90
2023-10-20T09:21:47.717Z,7.05
2023-10-20T09:24:19.547Z,6.47
2023-10-20T09:26:49.367Z,5.45
2023-10-20T09:29:22.731Z,5.88
2023-10-20T09:31:52.874Z,6.35
2023-10-20T09:34:22.317Z,6.93
2023-10-20T09:36:58.017Z,5.43
2023-10-20T09:39:38.563Z,5.57
2023-10-20T09:42:08.282Z,5.53
2023-10-20T09:44:46.084Z,4.47
2023-10-20T09:47:24.134Z,4.80
2023-10-20T09:49:54.199Z,5.90
2023-10-20T09:52:27.269Z,6.07
2023-10-20T09:55:12.607Z,4.15
2023-10-20T09:57:41.085Z,6.43
2023-10-20T10:00:13.993Z,4.72
2023-10-20T10:02:42.167Z,3.87
2023-10-20T10:05:11.401Z,4.55
2023-10-20T10:07:40.180Z,3.50
2023-10-20T10:10:09.361Z,2.97
2023-10-20T10:12:38.094Z,3.60
2023-10-20T10:15:09.126Z,3.27
2023-10-20T10:17:47.259Z,3.47
2023-10-20T10:20:20.751Z,3.90
2023-10-20T10:22:48.623Z,3.05
2023-10-20T10:25:19.674Z,3.53
2023-10-20T10:27:47.706Z,3.33
2023-10-20T10:30:17.105Z,2.30
2023-10-20T10:32:48.948Z,2.63
2023-10-20T10:35:18.209Z,2.88
2023-10-20T10:37:46.288Z,3.00
2023-10-20T10:40:16.044Z,2.30
2023-10-20T10:42:46.431Z,4.22
2023-10-20T10:45:20.075Z,2.13
2023-10-20T10:47:50.507Z,2.88
2023-10-20T10:50:21.533Z,3.60
2023-10-20T10:52:51.962Z,2.20
2023-10-20T10:55:21.079Z,2.60
2023-10-20T10:57:49.122Z,1.98
2023-10-20T11:00:18.097Z,2.30
2023-10-20T11:02:47.294Z,2.10
2023-10-20T11:05:18.807Z,2.57
2023-10-20T11:08:00.240Z,2.53
2023-10-20T11:10:29.225Z,2.28
2023-10-20T11:12:57.501Z,2.33
2023-10-20T11:15:29.934Z,1.60
2023-10-20T11:18:02.282Z,1.80
2023-10-20T11:20:37.722Z,2.35
2023-10-20T11:23:08.984Z,2.63
2023-10-20T11:25:38.149Z,2.45
2023-10-20T11:28:07.246Z,2.50
2023-10-20T11:30:38.668Z,2.73
2023-10-20T11:33:07.178Z,2.28
2023-10-20T11:35:39.939Z,1.88
2023-10-20T11:38:07.981Z,2.33
2023-10-20T11:40:36.444Z,2.25
2023-10-20T11:43:05.770Z,1.30
2023-10-20T11:45:34.292Z,2.50
2023-10-20T11:48:02.788Z,2.17
2023-10-20T11:50:31.097Z,2.38
2023-10-20T11:53:00.978Z,3.22
2023-10-20T11:55:28.846Z,2.37
2023-10-20T11:57:56.801Z,3.38
2023-10-20T12:00:24.751Z,2.55
2023-10-20T12:02:52.819Z,1.08
2023-10-20T12:05:21.001Z,2.05
2023-10-20T12:07:49.052Z,3.43
2023-10-20T12:10:18.313Z,3.67
2023-10-20T12:12:46.271Z,1.85
2023-10-20T12:15:14.685Z,1.98
2023-10-20T12:17:42.902Z,1.65
2023-10-20T12:20:11.956Z,1.70
2023-10-20T12:22:39.979Z,1.90
2023-10-20T12:25:08.828Z,2.33
2023-10-20T12:27:39.079Z,1.27
2023-10-20T12:30:10.331Z,1.85
2023-10-20T12:32:38.352Z,1.80
2023-10-20T12:35:07.287Z,1.13
2023-10-20T12:37:35.344Z,1.55
2023-10-20T12:40:03.667Z,1.27
2023-10-20T12:42:31.791Z,1.85
2023-10-20T12:45:03.022Z,1.57
2023-10-20T12:47:33.889Z,2.13
2023-10-20T12:50:02.219Z,2.28
2023-10-20T12:52:30.297Z,1.58
2023-10-20T12:54:58.230Z,1.30
2023-10-20T12:57:26.215Z,1.10
2023-10-20T12:59:54.174Z,1.15
2023-10-20T13:02:23.532Z,0.82
2023-10-20T13:04:52.368Z,1.15
2023-10-20T13:07:21.429Z,1.92
2023-10-20T13:09:49.451Z,2.47
2023-10-20T13:12:17.928Z,2.63
2023-10-20T13:14:46.256Z,1.17
2023-10-20T13:17:15.762Z,1.48
2023-10-20T13:19:45.456Z,2.53
2023-10-20T13:22:13.599Z,2.97
2023-10-20T13:24:42.499Z,0.90
2023-10-20T13:27:10.695Z,1.15
2023-10-20T13:29:39.145Z,1.05
2023-10-20T13:32:07.500Z,1.00
2023-10-20T13:34:36.417Z,1.57
2023-10-20T13:37:06.606Z,1.23
2023-10-20T13:39:35.033Z,1.45
2023-10-20T13:42:05.613Z,1.08
2023-10-20T13:44:35.383Z,0.85
2023-10-20T13:47:03.415Z,0.70
2023-10-20T13:49:31.493Z,1.00
2023-10-20T13:52:00.342Z,1.02
2023-10-20T13:54:29.805Z,0.80
2023-10-20T13:56:57.918Z,2.25
2023-10-20T13:59:26.773Z,0.80
2023-10-20T14:01:55.207Z,1.63
2023-10-20T14:04:25.713Z,1.10
2023-10-20T14:06:58.493Z,1.98
2023-10-20T14:09:27.551Z,1.95
2023-10-20T14:11:56.996Z,1.23
2023-10-20T14:14:31.968Z,1.25
2023-10-20T14:17:07.029Z,3.95
2023-10-20T14:19:35.871Z,1.00
2023-10-20T14:22:04.826Z,0.85
2023-10-20T14:24:33.696Z,2.63
2023-10-20T14:27:03.423Z,3.17
2023-10-20T14:29:31.539Z,1.77
2023-10-20T14:32:00.906Z,1.45
2023-10-20T14:34:29.342Z,2.42
2023-10-20T14:36:57.733Z,0.80
2023-10-20T14:39:27.344Z,1.00
2023-10-20T14:42:23.672Z,1.25
2023-10-20T14:44:52.456Z,1.35
2023-10-20T14:47:21.812Z,2.72
2023-10-20T14:49:50.133Z,2.10
2023-10-20T14:52:18.793Z,1.35
2023-10-20T14:54:46.914Z,1.83
2023-10-20T14:57:15.009Z,3.53
2023-10-20T14:59:44.423Z,2.40
2023-10-20T15:02:12.443Z,0.90
2023-10-20T15:04:41.268Z,1.23
2023-10-20T15:08:23.931Z,1.48
2023-10-20T15:10:52.000Z,1.25
2023-10-20T15:13:21.300Z,4.10
2023-10-20T15:15:51.175Z,1.90
2023-10-20T15:18:28.748Z,2.88
2023-10-20T15:21:00.341Z,0.90
2023-10-20T15:23:28.929Z,1.77
2023-10-20T15:25:57.293Z,2.10
2023-10-20T15:28:25.603Z,2.40
2023-10-20T15:30:56.027Z,1.95
2023-10-20T15:33:24.176Z,1.00
2023-10-20T15:35:52.594Z,1.80
2023-10-20T15:38:20.633Z,2.40
2023-10-20T15:40:52.365Z,0.50
2023-10-20T15:43:21.173Z,0.95
2023-10-20T15:45:49.156Z,1.55
2023-10-20T15:48:18.503Z,2.03
2023-10-20T15:50:47.003Z,1.05
2023-10-20T15:53:15.381Z,1.67
2023-10-20T15:55:44.506Z,1.15
2023-10-20T15:58:13.337Z,0.90
2023-10-20T16:00:47.410Z,2.63
2023-10-20T16:03:18.191Z,2.47
2023-10-20T16:05:50.152Z,1.07
2023-10-20T16:08:18.469Z,1.88
2023-10-20T16:10:46.779Z,1.17
2023-10-20T16:13:18.394Z,1.33
2023-10-20T16:15:46.879Z,3.92
2023-10-20T16:18:15.872Z,1.33
2023-10-20T16:20:45.469Z,0.90
2023-10-20T16:23:14.900Z,1.15
2023-10-20T16:25:44.500Z,1.05
2023-10-20T16:28:12.622Z,2.47
2023-10-20T16:30:41.513Z,1.93
2023-10-20T16:33:10.064Z,1.45
2023-10-20T16:35:44.181Z,2.50
2023-10-20T16:38:12.376Z,2.13
2023-10-20T16:40:42.252Z,2.33
2023-10-20T16:43:10.636Z,2.03
2023-10-20T16:45:39.094Z,1.38
2023-10-20T16:48:08.616Z,1.63
2023-10-20T16:50:36.722Z,1.42
2023-10-20T16:53:07.245Z,2.45
2023-10-20T16:55:38.143Z,2.97
2023-10-20T16:58:08.514Z,0.95
2023-10-20T17:00:37.336Z,1.80
2023-10-20T17:03:07.041Z,2.70
2023-10-20T17:05:38.437Z,1.60
2023-10-20T17:08:07.455Z,1.00
2023-10-20T17:10:39.644Z,4.22
2023-10-20T17:13:09.348Z,1.65
2023-10-20T17:15:37.648Z,2.15
2023-10-20T17:18:09.533Z,2.20
2023-10-20T17:20:41.812Z,1.63
2023-10-20T17:23:10.707Z,2.47
2023-10-20T17:25:39.531Z,2.58
2023-10-20T17:28:09.225Z,2.97
2023-10-20T17:30:38.741Z,2.13
2023-10-20T17:33:07.436Z,2.70
2023-10-20T17:35:36.280Z,2.25
2023-10-20T17:38:05.431Z,2.38
2023-10-20T17:40:36.870Z,1.73
2023-10-20T17:43:06.098Z,2.88
2023-10-20T17:45:42.232Z,1.87
2023-10-20T17:48:11.308Z,2.15
2023-10-20T17:50:40.008Z,2.13
2023-10-20T17:53:11.788Z,1.70
2023-10-20T17:55:42.391Z,3.75
2023-10-20T17:58:11.022Z,3.10
2023-10-20T18:00:42.169Z,3.47
2023-10-20T18:03:12.086Z,2.30
2023-10-20T18:05:41.271Z,3.90
2023-10-20T18:08:10.805Z,3.20
2023-10-20T18:10:44.149Z,4.43
2023-10-20T18:13:15.145Z,4.18
2023-10-20T18:15:46.329Z,4.10
2023-10-20T18:18:14.665Z,3.72
2023-10-20T18:20:42.781Z,7.47
2023-10-20T18:23:11.060Z,4.77
2023-10-20T18:25:39.347Z,4.90
2023-10-20T18:28:08.368Z,6.53
2023-10-20T18:30:37.047Z,4.95
2023-10-20T18:33:06.763Z,5.90
2023-10-20T18:35:35.784Z,5.10
2023-10-20T18:38:03.969Z,5.75
2023-10-20T18:40:37.792Z,6.25
2023-10-20T18:43:06.857Z,7.07
2023-10-20T18:45:36.866Z,7.28
2023-10-20T18:48:08.846Z,7.30
2023-10-20T18:50:38.330Z,8.95
2023-10-20T18:53:07.936Z,9.65
2023-10-20T18:55:36.565Z,10.32
2023-10-20T18:58:06.315Z,9.77
2023-10-20T19:00:36.390Z,10.10
2023-10-20T19:03:08.050Z,9.30
2023-10-20T19:05:36.915Z,10.88
2023-10-20T19:08:05.630Z,9.93
2023-10-20T19:10:34.022Z,11.70
2023-10-20T19:13:02.280Z,11.80
2023-10-20T19:15:31.583Z,11.50
2023-10-20T19:17:59.846Z,14.20
2023-10-20T19:20:29.800Z,14.77
2023-10-20T19:22:58.457Z,16.55
2023-10-20T19:25:41.143Z,15.63
2023-10-20T19:28:11.149Z,17.20
2023-10-20T19:30:39.682Z,16.80
2023-10-20T19:33:08.049Z,18.55
2023-10-20T19:35:37.839Z,21.20
2023-10-20T19:38:06.202Z,21.03
2023-10-20T19:40:35.138Z,21.92
2023-10-20T19:43:03.084Z,21.98
2023-10-20T19:45:31.169Z,24.70
2023-10-20T19:47:59.522Z,27.67
2023-10-20T19:50:28.247Z,26.50
2023-10-20T19:52:58.121Z,26.45
2023-10-20T19:55:26.308Z,29.30
2023-10-20T19:57:54.159Z,31.13
2023-10-20T20:00:22.798Z,30.83
2023-10-20T20:02:51.149Z,30.17
2023-10-20T20:05:19.286Z,35.33
2023-10-20T20:07:47.391Z,34.88
2023-10-20T20:10:19.556Z,30.33
2023-10-20T20:12:48.161Z,36.00
2023-10-20T20:15:17.035Z,33.00
2023-10-20T20:17:45.107Z,28.02
2023-10-20T20:20:16.374Z,28.67
2023-10-20T20:22:44.741Z,29.65
2023-10-20T20:25:13.236Z,29.13
2023-10-20T20:27:43.861Z,30.63
2023-10-20T20:30:13.227Z,28.15
2023-10-20T20:32:41.381Z,28.17
2023-10-20T20:35:10.142Z,25.77
2023-10-20T20:37:38.228Z,25.75
2023-10-20T20:40:09.715Z,28.90
2023-10-20T20:42:37.678Z,25.80
2023-10-20T20:45:08.807Z,30.23
2023-10-20T20:47:37.095Z,26.23
2023-10-20T20:50:10.385Z,29.40
2023-10-20T20:52:41.411Z,27.57
2023-10-20T20:55:09.921Z,25.98
2023-10-20T20:57:39.172Z,29.65
2023-10-20T21:00:12.127Z,25.42
2023-10-20T21:02:40.346Z,27.40
2023-10-20T21:05:08.954Z,28.50
2023-10-20T21:07:37.071Z,26.42
2023-10-20T21:10:05.579Z,30.00
2023-10-20T21:12:33.606Z,30.77
2023-10-20T21:15:01.898Z,31.58
2023-10-20T21:17:32.382Z,33.37
2023-10-20T21:20:00.761Z,27.73
2023-10-20T21:22:29.229Z,28.42
2023-10-20T21:24:58.304Z,33.15
2023-10-20T21:27:27.377Z,28.75
2023-10-20T21:29:55.659Z,32.03
2023-10-20T21:32:23.869Z,30.48
2023-10-20T21:34:53.305Z,32.60
2023-10-20T21:37:21.194Z,31.83
2023-10-20T21:39:49.197Z,29.02
2023-10-20T21:42:17.234Z,30.53
2023-10-20T21:44:46.047Z,31.25
2023-10-20T21:47:14.950Z,31.77
2023-10-20T21:49:43.813Z,30.95
2023-10-20T21:52:14.236Z,31.27
2023-10-20T21:54:42.518Z,27.00
2023-10-20T21:57:10.720Z,28.90
2023-10-20T21:59:38.697Z,29.80
2023-10-20T22:02:10.147Z,28.05
2023-10-20T22:04:42.747Z,28.52
2023-10-20T22:07:31.158Z,24.60
2023-10-20T22:09:59.548Z,26.30
2023-10-20T22:12:27.650Z,25.55
2023-10-20T22:14:56.408Z,28.13
2023-10-20T22:17:26.594Z,25.52
2023-10-20T22:19:54.881Z,26.50
2023-10-20T22:22:22.997Z,27.10
2023-10-20T22:24:53.544Z,21.45
2023-10-20T22:27:21.807Z,22.83
2023-10-20T22:29:50.101Z,29.50
2023-10-20T22:32:18.320Z,24.30
2023-10-20T22:34:46.373Z,25.90
2023-10-20T22:37:15.236Z,24.88
2023-10-20T22:39:43.298Z,23.35
2023-10-20T22:42:13.162Z,27.30
2023-10-20T22:44:42.923Z,26.70
2023-10-20T22:47:11.273Z,24.33
2023-10-20T22:49:39.945Z,26.38
2023-10-20T22:52:08.103Z,30.15
2023-10-20T22:54:36.378Z,24.38
2023-10-20T22:57:05.606Z,31.23
2023-10-20T22:59:36.014Z,27.42
2023-10-20T23:02:04.790Z,28.58
2023-10-20T23:04:33.210Z,26.05
2023-10-20T23:07:01.800Z,25.58
2023-10-20T23:09:31.788Z,24.40
2023-10-20T23:12:00.008Z,26.45
2023-10-20T23:14:29.230Z,27.20
2023-10-20T23:16:59.453Z,26.88
2023-10-20T23:19:27.626Z,25.17
2023-10-20T23:22:00.009Z,27.30
2023-10-20T23:24:28.344Z,23.38
2023-10-20T23:26:59.309Z,26.83
2023-10-20T23:29:27.913Z,26.60
2023-10-20T23:32:00.320Z,25.33
2023-10-20T23:34:31.885Z,27.03
2023-10-20T23:37:04.642Z,22.77
2023-10-20T23:39:38.112Z,26.50
2023-10-20T23:42:07.109Z,21.90
2023-10-20T23:44:42.425Z,23.48
2023-10-20T23:47:12.244Z,21.33
2023-10-20T23:49:40.276Z,25.45
2023-10-20T23:52:10.911Z,28.20
2023-10-20T23:54:38.933Z,28.40
2023-10-20T23:57:09.368Z,23.33
2023-10-20T23:59:41.166Z,23.07
